createdAt,value
2023-04-18T00:01:27.401Z,99204.94
2023-04-18T00:03:53.972Z,99207.31
2023-04-18T00:06:22.200Z,99210.38
2023-04-18T00:08:48.977Z,99211.06
2023-04-18T00:11:15.416Z,99215.38
2023-04-18T00:13:41.894Z,99210.72
2023-04-18T00:16:08.714Z,99205.81
2023-04-18T00:18:36.815Z,99208.69
2023-04-18T00:21:04.334Z,99196.13
2023-04-18T00:23:31.119Z,99197.41
2023-04-18T00:25:57.672Z,99195.78
2023-04-18T00:28:24.153Z,99194.09
2023-04-18T00:30:50.669Z,99195.69
2023-04-18T00:33:17.711Z,99195.19
2023-04-18T00:35:44.386Z,99200.63
2023-04-18T00:38:10.801Z,99203.09
2023-04-18T00:40:37.815Z,99201.81
2023-04-18T00:43:04.444Z,99203.25
2023-04-18T00:45:31.072Z,99197.91
2023-04-18T00:47:57.557Z,99207.69
2023-04-18T00:50:24.599Z,99206.56
2023-04-18T00:52:52.089Z,99199.84
2023-04-18T00:55:18.874Z,99199.25
2023-04-18T00:57:45.908Z,99199.84
2023-04-18T01:00:12.897Z,99198.16
2023-04-18T01:02:40.214Z,99195.41
2023-04-18T01:05:07.938Z,99195.06
2023-04-18T01:07:37.323Z,99196.25
2023-04-18T01:10:04.266Z,99199.28
2023-04-18T01:12:30.738Z,99190.97
2023-04-18T01:14:57.290Z,99200.22
2023-04-18T01:17:23.841Z,99199.63
2023-04-18T01:19:50.973Z,99194.22
2023-04-18T01:22:19.489Z,99192.34
2023-04-18T01:24:45.906Z,99198.44
2023-04-18T01:27:13.765Z,99186.22
2023-04-18T01:29:43.028Z,99194.13
2023-04-18T01:32:09.479Z,99185.72
2023-04-18T01:34:36.122Z,99184.16
2023-04-18T01:37:02.534Z,99187.66
2023-04-18T01:39:29.185Z,99183.50
2023-04-18T01:41:55.591Z,99180.53
2023-04-18T01:44:22.005Z,99180.09
2023-04-18T01:46:48.484Z,99181.72
2023-04-18T01:49:15.996Z,99180.50
2023-04-18T01:51:43.131Z,99174.31
2023-04-18T01:54:09.561Z,99174.09
2023-04-18T01:56:35.950Z,99180.81
2023-04-18T01:59:02.357Z,99173.97
2023-04-18T02:01:28.792Z,99175.88
2023-04-18T02:03:55.496Z,99163.69
2023-04-18T02:06:22.120Z,99163.38
2023-04-18T02:08:48.753Z,99166.22
2023-04-18T02:11:15.248Z,99168.28
2023-04-18T02:13:41.760Z,99173.03
2023-04-18T02:16:12.915Z,99172.50
2023-04-18T02:18:40.148Z,99171.44
2023-04-18T02:21:07.225Z,99165.16
2023-04-18T02:23:33.716Z,99165.16
2023-04-18T02:26:00.258Z,99172.59
2023-04-18T02:28:26.693Z,99171.28
2023-04-18T02:30:53.077Z,99168.50
2023-04-18T02:33:19.553Z,99169.03
2023-04-18T02:35:45.947Z,99166.72
2023-04-18T02:38:13.739Z,99164.28
2023-04-18T02:40:40.166Z,99168.34
2023-04-18T02:43:06.573Z,99172.91
2023-04-18T02:45:33.029Z,99173.44
2023-04-18T02:47:59.571Z,99172.50
2023-04-18T02:50:26.894Z,99170.78
2023-04-18T02:52:53.446Z,99171.28
2023-04-18T02:55:20.997Z,99166.47
2023-04-18T02:57:47.625Z,99164.69
2023-04-18T03:00:14.440Z,99167.50
2023-04-18T03:02:41.130Z,99161.31
2023-04-18T03:05:08.013Z,99169.31
2023-04-18T03:07:34.460Z,99166.84
2023-04-18T03:10:00.920Z,99166.63
2023-04-18T03:12:27.273Z,99165.00
2023-04-18T03:14:53.688Z,99165.00
2023-04-18T03:17:20.510Z,99167.63
2023-04-18T03:19:46.957Z,99172.31
2023-04-18T03:22:14.320Z,99172.88
2023-04-18T03:24:40.833Z,99178.75
2023-04-18T03:27:07.611Z,99167.13
2023-04-18T03:29:34.171Z,99170.69
2023-04-18T03:32:00.781Z,99170.50
2023-04-18T03:34:27.592Z,99171.75
2023-04-18T03:36:54.220Z,99171.53
2023-04-18T03:39:20.925Z,99165.34
2023-04-18T03:41:47.465Z,99175.19
2023-04-18T03:44:14.115Z,99176.66
2023-04-18T03:46:41.158Z,99177.59
2023-04-18T03:49:07.619Z,99177.53
2023-04-18T03:51:44.472Z,99169.31
2023-04-18T03:54:11.021Z,99172.16
2023-04-18T03:56:37.569Z,99165.56
2023-04-18T03:59:04.060Z,99169.13
2023-04-18T04:01:30.714Z,99176.25
2023-04-18T04:03:57.268Z,99173.06
2023-04-18T04:06:24.192Z,99175.19
2023-04-18T04:08:50.585Z,99175.94
2023-04-18T04:11:17.566Z,99172.72
2023-04-18T04:13:44.138Z,99167.28
2023-04-18T04:16:10.753Z,99164.41
2023-04-18T04:18:37.470Z,99171.50
2023-04-18T04:21:05.192Z,99178.06
2023-04-18T04:23:31.662Z,99174.19
2023-04-18T04:25:58.760Z,99178.69
2023-04-18T04:28:26.302Z,99175.22
2023-04-18T04:30:53.169Z,99180.13
2023-04-18T04:33:20.669Z,99181.81
2023-04-18T04:35:47.581Z,99185.13
2023-04-18T04:38:15.333Z,99185.22
2023-04-18T04:40:42.517Z,99185.94
2023-04-18T04:43:12.484Z,99184.19
2023-04-18T04:45:41.902Z,99190.38
2023-04-18T04:48:09.343Z,99196.56
2023-04-18T04:50:41.791Z,99196.50
2023-04-18T04:53:08.683Z,99192.81
2023-04-18T04:55:35.289Z,99197.25
2023-04-18T04:58:01.753Z,99191.03
2023-04-18T05:00:28.850Z,99195.78
2023-04-18T05:02:57.192Z,99204.84
2023-04-18T05:05:23.665Z,99201.72
2023-04-18T05:07:50.398Z,99202.47
2023-04-18T05:10:17.026Z,99202.69
2023-04-18T05:12:43.418Z,99202.59
2023-04-18T05:15:10.531Z,99199.19
2023-04-18T05:17:37.116Z,99198.69
2023-04-18T05:20:04.364Z,99197.44
2023-04-18T05:22:30.824Z,99202.16
2023-04-18T05:24:57.280Z,99210.91
2023-04-18T05:27:23.935Z,99212.91
2023-04-18T05:29:52.785Z,99205.63
2023-04-18T05:32:22.315Z,99201.63
2023-04-18T05:34:49.028Z,99203.69
2023-04-18T05:37:15.470Z,99202.53
2023-04-18T05:39:41.959Z,99206.50
2023-04-18T05:42:11.017Z,99212.94
2023-04-18T05:44:37.459Z,99209.06
2023-04-18T05:47:07.742Z,99212.03
2023-04-18T05:49:37.218Z,99222.41
2023-04-18T05:52:06.283Z,99213.94
2023-04-18T05:54:35.221Z,99217.44
2023-04-18T05:57:03.859Z,99223.28
2023-04-18T05:59:30.973Z,99221.66
2023-04-18T06:01:57.436Z,99217.97
2023-04-18T06:04:24.052Z,99230.16
2023-04-18T06:06:53.088Z,99237.47
2023-04-18T06:09:19.646Z,99228.38
2023-04-18T06:11:46.532Z,99225.53
2023-04-18T06:14:13.460Z,99221.91
2023-04-18T06:16:40.661Z,99228.06
2023-04-18T06:19:07.260Z,99231.38
2023-04-18T06:21:33.916Z,99237.06
2023-04-18T06:24:01.497Z,99233.72
2023-04-18T06:26:29.530Z,99234.31
2023-04-18T06:28:56.019Z,99245.34
2023-04-18T06:31:22.464Z,99240.28
2023-04-18T06:33:48.950Z,99242.28
2023-04-18T06:36:15.489Z,99248.91
2023-04-18T06:38:41.906Z,99250.00
2023-04-18T06:41:08.525Z,99250.44
2023-04-18T06:43:36.274Z,99250.13
2023-04-18T06:46:04.741Z,99251.69
2023-04-18T06:48:31.379Z,99253.38
2023-04-18T06:50:57.919Z,99248.50
2023-04-18T06:53:24.397Z,99259.63
2023-04-18T06:55:51.061Z,99264.41
2023-04-18T06:58:17.729Z,99262.16
2023-04-18T07:00:45.096Z,99263.88
2023-04-18T07:03:13.364Z,99269.22
2023-04-18T07:05:40.535Z,99264.88
2023-04-18T07:08:07.602Z,99271.44
2023-04-18T07:10:34.060Z,99270.72
2023-04-18T07:13:00.619Z,99263.16
2023-04-18T07:15:27.171Z,99272.16
2023-04-18T07:17:56.833Z,99271.69
2023-04-18T07:20:23.251Z,99276.97
2023-04-18T07:22:49.677Z,99265.16
2023-04-18T07:25:16.271Z,99264.75
2023-04-18T07:27:42.845Z,99254.25
2023-04-18T07:30:09.796Z,99257.44
2023-04-18T07:32:36.598Z,99254.22
2023-04-18T07:35:04.143Z,99256.88
2023-04-18T07:37:31.236Z,99264.00
2023-04-18T07:39:57.664Z,99259.66
2023-04-18T07:42:24.079Z,99261.00
2023-04-18T07:44:50.538Z,99266.94
2023-04-18T07:47:22.347Z,99266.06
2023-04-18T07:49:49.180Z,99267.66
2023-04-18T07:52:15.612Z,99264.41
2023-04-18T07:54:42.134Z,99264.09
2023-04-18T07:57:08.737Z,99260.13
2023-04-18T07:59:35.310Z,99258.22
2023-04-18T08:02:02.025Z,99260.63
2023-04-18T08:04:30.463Z,99263.09
2023-04-18T08:06:57.154Z,99265.19
2023-04-18T08:09:23.592Z,99265.53
2023-04-18T08:11:50.204Z,99256.06
2023-04-18T08:14:16.718Z,99254.34
2023-04-18T08:16:43.178Z,99254.38
2023-04-18T08:19:09.771Z,99253.59
2023-04-18T08:21:36.388Z,99248.38
2023-04-18T08:24:02.828Z,99254.75
2023-04-18T08:26:29.240Z,99257.13
2023-04-18T08:28:55.664Z,99260.22
2023-04-18T08:31:22.287Z,99268.75
2023-04-18T08:33:48.733Z,99275.75
2023-04-18T08:36:15.403Z,99273.38
2023-04-18T08:38:41.893Z,99265.94
2023-04-18T08:41:08.557Z,99267.03
2023-04-18T08:43:35.356Z,99266.47
2023-04-18T08:46:01.975Z,99271.63
2023-04-18T08:48:28.556Z,99272.31
2023-04-18T08:50:59.523Z,99276.16
2023-04-18T08:53:26.775Z,99270.84
2023-04-18T08:55:57.258Z,99271.84
2023-04-18T08:58:26.396Z,99268.66
2023-04-18T09:00:55.669Z,99271.59
2023-04-18T09:03:41.569Z,99273.50
2023-04-18T09:06:14.036Z,99275.66
2023-04-18T09:08:54.711Z,99279.41
2023-04-18T09:11:21.970Z,99279.69
2023-04-18T09:13:48.566Z,99273.78
2023-04-18T09:16:14.998Z,99274.25
2023-04-18T09:18:42.369Z,99266.72
2023-04-18T09:21:19.357Z,99266.28
2023-04-18T09:23:50.333Z,99264.00
2023-04-18T09:26:33.747Z,99273.00
2023-04-18T09:29:00.873Z,99273.00
2023-04-18T09:31:27.969Z,99267.75
2023-04-18T09:33:56.560Z,99265.81
2023-04-18T09:36:27.253Z,99271.28
2023-04-18T09:38:56.623Z,99273.25
2023-04-18T09:41:24.273Z,99272.63
2023-04-18T09:44:11.527Z,99260.72
2023-04-18T09:46:45.226Z,99268.28
2023-04-18T09:49:13.477Z,99261.03
2023-04-18T09:51:43.042Z,99265.50
2023-04-18T09:54:14.753Z,99271.97
2023-04-18T09:56:44.177Z,99266.66
2023-04-18T09:59:12.277Z,99266.91
2023-04-18T10:01:41.315Z,99268.47
2023-04-18T10:04:08.911Z,99262.72
2023-04-18T10:06:39.605Z,99264.66
2023-04-18T10:09:09.071Z,99256.91
2023-04-18T10:11:36.362Z,99267.91
2023-04-18T10:14:07.864Z,99262.41
2023-04-18T10:16:36.423Z,99258.69
2023-04-18T10:19:29.404Z,99263.13
2023-04-18T10:21:57.761Z,99262.56
2023-04-18T10:24:50.103Z,99252.56
2023-04-18T10:27:17.184Z,99259.16
2023-04-18T10:29:51.091Z,99256.66
2023-04-18T10:32:23.524Z,99250.81
2023-04-18T10:34:50.454Z,99253.56
2023-04-18T10:37:18.788Z,99257.81
2023-04-18T10:40:06.292Z,99246.38
2023-04-18T10:42:48.009Z,99256.13
2023-04-18T10:45:24.650Z,99252.44
2023-04-18T10:48:11.183Z,99254.53
2023-04-18T10:51:12.895Z,99249.00
2023-04-18T10:53:40.516Z,99252.34
2023-04-18T10:56:10.748Z,99245.03
2023-04-18T10:58:37.287Z,99247.03
2023-04-18T11:01:06.330Z,99247.59
2023-04-18T11:03:34.039Z,99244.31
2023-04-18T11:06:04.003Z,99243.66
2023-04-18T11:08:33.703Z,99235.66
2023-04-18T11:11:03.048Z,99232.84
2023-04-18T11:13:29.630Z,99225.69
2023-04-18T11:15:56.174Z,99228.41
2023-04-18T11:18:22.684Z,99226.22
2023-04-18T11:20:51.109Z,99216.28
2023-04-18T11:23:24.839Z,99223.53
2023-04-18T11:25:56.297Z,99229.06
2023-04-18T11:28:24.827Z,99228.91
2023-04-18T11:30:51.300Z,99231.88
2023-04-18T11:33:19.709Z,99218.69
2023-04-18T11:35:49.200Z,99212.47
2023-04-18T11:38:16.450Z,99218.84
2023-04-18T11:40:50.283Z,99220.94
2023-04-18T11:43:21.991Z,99220.69
2023-04-18T11:45:55.691Z,99223.28
2023-04-18T11:48:23.015Z,99215.00
2023-04-18T11:50:49.836Z,99222.41
2023-04-18T11:53:40.545Z,99221.50
2023-04-18T11:56:07.455Z,99221.91
2023-04-18T11:58:34.809Z,99221.38
2023-04-18T12:01:19.036Z,99226.94
2023-04-18T12:04:06.695Z,99229.28
2023-04-18T12:06:50.044Z,99232.25
2023-04-18T12:09:17.403Z,99228.38
2023-04-18T12:11:44.233Z,99219.09
2023-04-18T12:14:21.632Z,99222.59
2023-04-18T12:16:51.540Z,99227.63
2023-04-18T12:19:20.886Z,99218.31
2023-04-18T12:22:00.832Z,99217.50
2023-04-18T12:24:28.931Z,99215.78
2023-04-18T12:26:57.824Z,99208.03
2023-04-18T12:29:25.590Z,99224.97
2023-04-18T12:31:54.629Z,99214.84
2023-04-18T12:34:21.340Z,99221.72
2023-04-18T12:36:47.854Z,99215.19
2023-04-18T12:39:14.243Z,99216.88
2023-04-18T12:41:43.482Z,99216.22
2023-04-18T12:44:10.095Z,99213.81
2023-04-18T12:46:36.674Z,99206.91
2023-04-18T12:49:03.136Z,99209.13
2023-04-18T12:51:29.591Z,99215.63
2023-04-18T12:53:56.396Z,99224.63
2023-04-18T12:56:23.025Z,99214.63
2023-04-18T12:58:49.439Z,99224.03
2023-04-18T13:01:16.466Z,99221.69
2023-04-18T13:03:43.177Z,99216.34
2023-04-18T13:06:09.785Z,99214.75
2023-04-18T13:08:38.334Z,99214.72
2023-04-18T13:11:04.830Z,99215.78
2023-04-18T13:13:34.460Z,99219.44
2023-04-18T13:16:02.200Z,99224.06
2023-04-18T13:18:28.622Z,99217.88
2023-04-18T13:20:55.110Z,99221.50
2023-04-18T13:23:21.562Z,99223.22
2023-04-18T13:25:48.090Z,99214.81
2023-04-18T13:28:14.580Z,99222.59
2023-04-18T13:30:41.010Z,99223.88
2023-04-18T13:33:07.482Z,99225.34
2023-04-18T13:35:33.989Z,99221.53
2023-04-18T13:38:00.666Z,99222.13
2023-04-18T13:40:27.231Z,99225.59
2023-04-18T13:42:53.742Z,99220.50
2023-04-18T13:45:20.589Z,99214.31
2023-04-18T13:47:47.311Z,99212.75
2023-04-18T13:50:13.808Z,99220.28
2023-04-18T13:52:40.362Z,99217.81
2023-04-18T13:55:07.499Z,99218.66
2023-04-18T13:57:34.288Z,99219.81
2023-04-18T14:00:01.199Z,99220.81
2023-04-18T14:02:27.895Z,99218.16
2023-04-18T14:04:54.940Z,99223.66
2023-04-18T14:07:21.488Z,99226.00
2023-04-18T14:09:48.165Z,99215.63
2023-04-18T14:12:14.767Z,99213.59
2023-04-18T14:14:41.849Z,99220.16
2023-04-18T14:17:08.267Z,99217.13
2023-04-18T14:19:34.981Z,99225.06
2023-04-18T14:22:01.434Z,99218.19
2023-04-18T14:24:27.981Z,99210.59
2023-04-18T14:26:54.891Z,99202.16
2023-04-18T14:29:21.394Z,99202.38
2023-04-18T14:31:47.917Z,99216.34
2023-04-18T14:34:14.613Z,99207.16
2023-04-18T14:36:41.144Z,99208.88
2023-04-18T14:39:08.294Z,99202.84
2023-04-18T14:41:34.696Z,99215.44
2023-04-18T14:44:01.142Z,99202.56
2023-04-18T14:46:28.244Z,99199.47
2023-04-18T14:48:54.986Z,99197.13
2023-04-18T14:51:21.456Z,99203.44
2023-04-18T14:53:47.915Z,99193.06
2023-04-18T14:56:15.811Z,99205.91
2023-04-18T14:58:42.839Z,99205.59
2023-04-18T15:01:09.226Z,99214.72
2023-04-18T15:03:35.849Z,99195.69
2023-04-18T15:06:02.375Z,99197.25
2023-04-18T15:08:30.775Z,99208.38
2023-04-18T15:10:58.917Z,99208.09
2023-04-18T15:13:25.407Z,99206.13
2023-04-18T15:15:56.780Z,99216.47
2023-04-18T15:18:23.431Z,99204.94
2023-04-18T15:20:50.042Z,99205.13
2023-04-18T15:23:16.598Z,99216.34
2023-04-18T15:25:44.867Z,99203.22
2023-04-18T15:28:13.511Z,99208.34
2023-04-18T15:30:40.173Z,99217.66
2023-04-18T15:33:06.732Z,99216.44
2023-04-18T15:35:33.227Z,99215.81
2023-04-18T15:37:59.714Z,99211.94
2023-04-18T15:40:26.126Z,99219.31
2023-04-18T15:42:54.160Z,99219.50
2023-04-18T15:45:21.278Z,99219.81
2023-04-18T15:47:47.957Z,99221.72
2023-04-18T15:50:15.981Z,99215.28
2023-04-18T15:52:42.670Z,99221.22
2023-04-18T15:55:11.267Z,99210.44
2023-04-18T15:57:37.757Z,99225.47
2023-04-18T16:00:27.345Z,99224.75
2023-04-18T16:02:54.071Z,99225.56
2023-04-18T16:05:20.726Z,99227.25
2023-04-18T16:07:47.124Z,99228.94
2023-04-18T16:10:15.258Z,99222.72
2023-04-18T16:12:41.756Z,99222.56
2023-04-18T16:15:09.958Z,99229.84
2023-04-18T16:17:37.697Z,99236.44
2023-04-18T16:20:09.077Z,99242.06
2023-04-18T16:22:36.457Z,99232.34
2023-04-18T16:25:04.090Z,99241.59
2023-04-18T16:27:30.598Z,99236.44
2023-04-18T16:29:57.064Z,99234.34
2023-04-18T16:32:23.600Z,99236.19
2023-04-18T16:34:50.113Z,99235.66
2023-04-18T16:37:16.570Z,99238.94
2023-04-18T16:39:43.002Z,99241.19
2023-04-18T16:42:09.517Z,99242.59
2023-04-18T16:44:35.988Z,99237.53
2023-04-18T16:47:04.954Z,99243.44
2023-04-18T16:49:31.593Z,99244.28
2023-04-18T16:51:58.086Z,99245.00
2023-04-18T16:54:24.497Z,99240.22
2023-04-18T16:56:50.913Z,99251.44
2023-04-18T16:59:17.733Z,99254.56
2023-04-18T17:01:44.293Z,99246.69
2023-04-18T17:04:11.251Z,99252.31
2023-04-18T17:06:37.747Z,99248.09
2023-04-18T17:09:06.204Z,99256.53
2023-04-18T17:11:38.781Z,99263.28
2023-04-18T17:14:06.001Z,99267.44
2023-04-18T17:16:32.417Z,99268.44
2023-04-18T17:18:58.809Z,99270.66
2023-04-18T17:21:26.121Z,99269.13
2023-04-18T17:23:53.349Z,99268.56
2023-04-18T17:26:19.780Z,99269.41
2023-04-18T17:28:46.248Z,99273.59
2023-04-18T17:31:16.214Z,99277.81
2023-04-18T17:33:43.072Z,99274.28
2023-04-18T17:36:09.789Z,99278.50
2023-04-18T17:38:36.388Z,99274.41
2023-04-18T17:41:04.562Z,99290.41
2023-04-18T17:43:31.011Z,99283.31
2023-04-18T17:45:59.873Z,99289.75
2023-04-18T17:48:26.358Z,99290.19
2023-04-18T17:50:52.757Z,99289.59
2023-04-18T17:53:19.190Z,99288.56
2023-04-18T17:55:48.849Z,99286.06
2023-04-18T17:58:16.804Z,99292.34
2023-04-18T18:00:43.330Z,99299.16
2023-04-18T18:03:13.473Z,99301.84
2023-04-18T18:05:41.307Z,99306.13
2023-04-18T18:08:07.890Z,99295.81
2023-04-18T18:10:34.423Z,99303.22
2023-04-18T18:13:00.928Z,99301.84
2023-04-18T18:15:28.393Z,99308.00
2023-04-18T18:17:55.706Z,99306.44
2023-04-18T18:20:22.423Z,99310.91
2023-04-18T18:22:49.011Z,99312.03
2023-04-18T18:25:15.436Z,99309.19
2023-04-18T18:27:42.072Z,99304.94
2023-04-18T18:30:09.156Z,99309.19
2023-04-18T18:32:35.675Z,99314.28
2023-04-18T18:35:02.812Z,99319.75
2023-04-18T18:37:29.268Z,99318.66
2023-04-18T18:39:59.770Z,99320.97
2023-04-18T18:42:26.370Z,99325.94
2023-04-18T18:44:52.816Z,99320.03
2023-04-18T18:47:19.370Z,99320.22
2023-04-18T18:49:45.881Z,99322.69
2023-04-18T18:52:12.420Z,99335.13
2023-04-18T18:54:38.968Z,99332.38
2023-04-18T18:57:05.451Z,99328.41
2023-04-18T18:59:32.010Z,99342.44
2023-04-18T19:01:58.710Z,99339.28
2023-04-18T19:04:25.623Z,99335.28
2023-04-18T19:06:53.426Z,99341.13
2023-04-18T19:09:19.861Z,99338.44
2023-04-18T19:11:46.453Z,99336.78
2023-04-18T19:14:13.091Z,99343.53
2023-04-18T19:16:39.684Z,99341.72
2023-04-18T19:19:06.253Z,99336.78
2023-04-18T19:21:32.665Z,99336.06
2023-04-18T19:23:59.320Z,99336.78
2023-04-18T19:26:25.840Z,99346.56
2023-04-18T19:28:52.890Z,99349.28
2023-04-18T19:31:19.304Z,99347.81
2023-04-18T19:33:45.983Z,99345.53
2023-04-18T19:36:12.464Z,99344.94
2023-04-18T19:38:38.905Z,99345.91
2023-04-18T19:41:05.339Z,99351.09
2023-04-18T19:43:31.886Z,99351.47
2023-04-18T19:45:59.000Z,99344.66
2023-04-18T19:48:25.506Z,99345.31
2023-04-18T19:50:51.977Z,99342.78
2023-04-18T19:53:18.994Z,99347.72
2023-04-18T19:55:45.524Z,99350.63
2023-04-18T19:58:11.975Z,99355.03
2023-04-18T20:00:39.381Z,99352.81
2023-04-18T20:03:05.928Z,99354.16
2023-04-18T20:05:32.500Z,99358.63
2023-04-18T20:07:58.910Z,99345.81
2023-04-18T20:10:25.540Z,99354.16
2023-04-18T20:12:52.014Z,99359.97
2023-04-18T20:15:18.526Z,99362.88
2023-04-18T20:17:45.141Z,99355.13
2023-04-18T20:20:12.175Z,99368.59
2023-04-18T20:22:40.314Z,99364.94
2023-04-18T20:25:07.098Z,99353.09
2023-04-18T20:27:33.541Z,99355.38
2023-04-18T20:29:59.942Z,99350.41
2023-04-18T20:32:26.675Z,99352.25
2023-04-18T20:34:53.459Z,99349.72
2023-04-18T20:37:20.125Z,99352.72
2023-04-18T20:39:47.415Z,99351.78
2023-04-18T20:42:14.199Z,99350.94
2023-04-18T20:44:43.091Z,99359.63
2023-04-18T20:47:09.612Z,99356.25
2023-04-18T20:49:36.125Z,99361.81
2023-04-18T20:52:02.609Z,99352.50
2023-04-18T20:54:29.148Z,99349.97
2023-04-18T20:56:55.613Z,99350.94
2023-04-18T20:59:22.013Z,99348.41
2023-04-18T21:01:48.434Z,99357.13
2023-04-18T21:04:14.992Z,99355.16
2023-04-18T21:06:41.746Z,99362.91
2023-04-18T21:09:08.663Z,99365.72
2023-04-18T21:11:35.229Z,99360.47
2023-04-18T21:14:03.702Z,99365.38
2023-04-18T21:16:30.247Z,99365.09
2023-04-18T21:18:56.855Z,99375.50
2023-04-18T21:21:24.248Z,99369.94
2023-04-18T21:23:50.808Z,99368.88
2023-04-18T21:26:17.234Z,99371.28
2023-04-18T21:28:57.707Z,99365.22
2023-04-18T21:31:29.047Z,99378.41
2023-04-18T21:33:56.991Z,99382.06
2023-04-18T21:36:24.574Z,99376.09
2023-04-18T21:38:55.981Z,99375.03
2023-04-18T21:41:23.473Z,99381.94
2023-04-18T21:43:50.141Z,99362.34
2023-04-18T21:46:17.175Z,99371.66
2023-04-18T21:48:45.869Z,99366.44
2023-04-18T21:51:14.303Z,99359.56
2023-04-18T21:53:41.779Z,99367.81
2023-04-18T21:56:08.742Z,99360.19
2023-04-18T21:58:35.303Z,99362.09
2023-04-18T22:01:01.834Z,99355.94
2023-04-18T22:03:28.864Z,99368.03
2023-04-18T22:05:56.549Z,99360.41
2023-04-18T22:08:25.672Z,99363.06
2023-04-18T22:10:57.574Z,99366.22
2023-04-18T22:13:33.097Z,99361.16
2023-04-18T22:16:03.287Z,99359.94
2023-04-18T22:18:31.381Z,99358.75
2023-04-18T22:20:57.817Z,99361.16
2023-04-18T22:23:24.617Z,99363.84
2023-04-18T22:25:51.041Z,99360.91
2023-04-18T22:28:17.428Z,99355.72
2023-04-18T22:30:43.875Z,99359.94
2023-04-18T22:33:10.493Z,99355.38
2023-04-18T22:35:36.900Z,99362.38
2023-04-18T22:38:03.339Z,99365.03
2023-04-18T22:40:30.009Z,99361.63
2023-04-18T22:42:56.408Z,99362.25
2023-04-18T22:45:22.848Z,99356.09
2023-04-18T22:47:49.414Z,99363.34
2023-04-18T22:50:15.996Z,99356.34
2023-04-18T22:52:42.482Z,99354.53
2023-04-18T22:55:09.392Z,99353.91
2023-04-18T22:57:36.102Z,99356.44
2023-04-18T23:00:04.708Z,99359.59
2023-04-18T23:02:31.341Z,99359.59
2023-04-18T23:04:59.581Z,99367.91
2023-04-18T23:07:26.046Z,99359.34
2023-04-18T23:09:52.508Z,99360.06
2023-04-18T23:12:18.970Z,99359.34
2023-04-18T23:14:45.562Z,99352.84
2023-04-18T23:17:11.983Z,99357.19
2023-04-18T23:19:38.659Z,99356.22
2023-04-18T23:22:05.085Z,99354.88
2023-04-18T23:24:31.884Z,99357.53
2023-04-18T23:26:58.275Z,99360.81
2023-04-18T23:29:24.901Z,99365.53
2023-04-18T23:31:51.647Z,99358.50
2023-04-18T23:34:18.119Z,99359.84
2023-04-18T23:36:44.862Z,99368.19
2023-04-18T23:39:11.485Z,99369.38
2023-04-18T23:41:37.895Z,99363.34
2023-04-18T23:44:04.437Z,99360.69
2023-04-18T23:46:31.108Z,99356.69
2023-04-18T23:48:57.623Z,99353.81
2023-04-18T23:51:24.037Z,99354.66
2023-04-18T23:53:50.833Z,99357.66
2023-04-18T23:56:17.259Z,99355.84
2023-04-18T23:58:43.668Z,99351.72
